sensor_id;sensor_type;location;lat;lon;timestamp;P1;durP1;ratioP1;P2;durP2;ratioP2
3573;SDS011;1801;51.050;6.246;2023-02-21T00:00:05;40.63;;;17.67;;
3573;SDS011;1801;51.050;6.246;2023-02-21T00:02:49;45.00;;;17.10;;
3573;SDS011;1801;51.050;6.246;2023-02-21T00:05:33;42.40;;;16.87;;
3573;SDS011;1801;51.050;6.246;2023-02-21T00:08:17;43.72;;;18.90;;
3573;SDS011;1801;51.050;6.246;2023-02-21T00:11:00;40.08;;;16.88;;
3573;SDS011;1801;51.050;6.246;2023-02-21T00:13:44;37.83;;;16.30;;
3573;SDS011;1801;51.050;6.246;2023-02-21T00:16:28;48.75;;;18.42;;
3573;SDS011;1801;51.050;6.246;2023-02-21T00:19:12;53.35;;;17.25;;
3573;SDS011;1801;51.050;6.246;2023-02-21T00:21:55;41.20;;;17.08;;
3573;SDS011;1801;51.050;6.246;2023-02-21T00:24:39;44.50;;;17.60;;
3573;SDS011;1801;51.050;6.246;2023-02-21T00:27:24;48.95;;;17.30;;
3573;SDS011;1801;51.050;6.246;2023-02-21T00:30:08;53.88;;;19.30;;
3573;SDS011;1801;51.050;6.246;2023-02-21T00:32:52;53.15;;;20.80;;
3573;SDS011;1801;51.050;6.246;2023-02-21T00:35:36;55.78;;;18.42;;
3573;SDS011;1801;51.050;6.246;2023-02-21T00:38:20;43.35;;;18.88;;
3573;SDS011;1801;51.050;6.246;2023-02-21T00:41:04;44.10;;;18.13;;
3573;SDS011;1801;51.050;6.246;2023-02-21T00:43:48;49.40;;;20.88;;
3573;SDS011;1801;51.050;6.246;2023-02-21T00:46:32;42.47;;;16.30;;
3573;SDS011;1801;51.050;6.246;2023-02-21T00:49:16;46.38;;;16.80;;
3573;SDS011;1801;51.050;6.246;2023-02-21T00:51:59;45.85;;;18.23;;
3573;SDS011;1801;51.050;6.246;2023-02-21T00:54:43;50.80;;;18.55;;
3573;SDS011;1801;51.050;6.246;2023-02-21T00:57:27;43.10;;;18.30;;
3573;SDS011;1801;51.050;6.246;2023-02-21T01:00:15;47.80;;;20.08;;
3573;SDS011;1801;51.050;6.246;2023-02-21T01:02:59;40.80;;;17.40;;
3573;SDS011;1801;51.050;6.246;2023-02-21T01:05:43;43.63;;;19.58;;
3573;SDS011;1801;51.050;6.246;2023-02-21T01:08:27;45.50;;;18.45;;
3573;SDS011;1801;51.050;6.246;2023-02-21T01:11:15;53.03;;;21.25;;
3573;SDS011;1801;51.050;6.246;2023-02-21T01:13:59;54.42;;;21.52;;
3573;SDS011;1801;51.050;6.246;2023-02-21T01:16:43;59.05;;;24.25;;
3573;SDS011;1801;51.050;6.246;2023-02-21T01:19:26;53.45;;;21.63;;
3573;SDS011;1801;51.050;6.246;2023-02-21T01:22:10;54.35;;;22.13;;
3573;SDS011;1801;51.050;6.246;2023-02-21T01:24:54;59.13;;;22.98;;
3573;SDS011;1801;51.050;6.246;2023-02-21T01:27:38;51.75;;;23.10;;
3573;SDS011;1801;51.050;6.246;2023-02-21T01:30:22;55.95;;;22.10;;
3573;SDS011;1801;51.050;6.246;2023-02-21T01:33:06;58.58;;;22.70;;
3573;SDS011;1801;51.050;6.246;2023-02-21T01:35:49;53.90;;;22.98;;
3573;SDS011;1801;51.050;6.246;2023-02-21T01:38:33;62.22;;;21.63;;
3573;SDS011;1801;51.050;6.246;2023-02-21T01:41:17;50.50;;;21.15;;
3573;SDS011;1801;51.050;6.246;2023-02-21T01:44:03;52.95;;;20.02;;
3573;SDS011;1801;51.050;6.246;2023-02-21T01:46:46;56.88;;;21.83;;
3573;SDS011;1801;51.050;6.246;2023-02-21T01:49:30;58.83;;;21.17;;
3573;SDS011;1801;51.050;6.246;2023-02-21T01:52:14;54.55;;;21.92;;
3573;SDS011;1801;51.050;6.246;2023-02-21T01:54:58;57.33;;;22.17;;
3573;SDS011;1801;51.050;6.246;2023-02-21T01:57:42;57.70;;;22.88;;
3573;SDS011;1801;51.050;6.246;2023-02-21T02:00:27;60.40;;;20.52;;
3573;SDS011;1801;51.050;6.246;2023-02-21T02:03:12;52.17;;;21.95;;
3573;SDS011;1801;51.050;6.246;2023-02-21T02:06:04;60.78;;;20.90;;
3573;SDS011;1801;51.050;6.246;2023-02-21T02:08:49;60.13;;;21.00;;
3573;SDS011;1801;51.050;6.246;2023-02-21T02:22:25;60.58;;;21.73;;
3573;SDS011;1801;51.050;6.246;2023-02-21T02:30:44;60.63;;;22.75;;
3573;SDS011;1801;51.050;6.246;2023-02-21T02:35:43;53.17;;;20.88;;
3573;SDS011;1801;51.050;6.246;2023-02-21T02:45:57;63.22;;;22.42;;
3573;SDS011;1801;51.050;6.246;2023-02-21T02:48:25;61.67;;;22.92;;
3573;SDS011;1801;51.050;6.246;2023-02-21T02:50:53;60.97;;;19.83;;
3573;SDS011;1801;51.050;6.246;2023-02-21T02:53:20;60.20;;;22.20;;
3573;SDS011;1801;51.050;6.246;2023-02-21T02:58:13;59.75;;;23.65;;
3573;SDS011;1801;51.050;6.246;2023-02-21T03:00:40;64.60;;;20.93;;
3573;SDS011;1801;51.050;6.246;2023-02-21T03:10:47;61.10;;;23.20;;
3573;SDS011;1801;51.050;6.246;2023-02-21T03:15:51;67.78;;;23.77;;
3573;SDS011;1801;51.050;6.246;2023-02-21T03:21:04;73.55;;;24.73;;
3573;SDS011;1801;51.050;6.246;2023-02-21T03:23:31;64.32;;;23.05;;
3573;SDS011;1801;51.050;6.246;2023-02-21T03:25:57;84.93;;;25.80;;
3573;SDS011;1801;51.050;6.246;2023-02-21T03:28:24;58.08;;;22.70;;
3573;SDS011;1801;51.050;6.246;2023-02-21T03:30:50;74.13;;;24.30;;
3573;SDS011;1801;51.050;6.246;2023-02-21T03:33:16;69.15;;;23.13;;
3573;SDS011;1801;51.050;6.246;2023-02-21T03:35:42;65.87;;;24.37;;
3573;SDS011;1801;51.050;6.246;2023-02-21T03:38:07;73.17;;;23.97;;
3573;SDS011;1801;51.050;6.246;2023-02-21T03:40:33;91.72;;;26.98;;
3573;SDS011;1801;51.050;6.246;2023-02-21T03:42:59;78.57;;;24.60;;
3573;SDS011;1801;51.050;6.246;2023-02-21T03:45:25;67.15;;;26.45;;
3573;SDS011;1801;51.050;6.246;2023-02-21T03:47:50;72.13;;;24.80;;
3573;SDS011;1801;51.050;6.246;2023-02-21T03:50:15;59.97;;;23.07;;
3573;SDS011;1801;51.050;6.246;2023-02-21T03:52:41;76.67;;;24.33;;
3573;SDS011;1801;51.050;6.246;2023-02-21T03:55:06;64.40;;;24.23;;
3573;SDS011;1801;51.050;6.246;2023-02-21T03:57:32;76.47;;;26.60;;
3573;SDS011;1801;51.050;6.246;2023-02-21T03:59:57;71.43;;;25.80;;
3573;SDS011;1801;51.050;6.246;2023-02-21T04:02:22;67.90;;;23.50;;
3573;SDS011;1801;51.050;6.246;2023-02-21T04:04:47;54.20;;;21.47;;
3573;SDS011;1801;51.050;6.246;2023-02-21T04:07:13;53.20;;;21.10;;
3573;SDS011;1801;51.050;6.246;2023-02-21T04:09:39;62.55;;;21.80;;
3573;SDS011;1801;51.050;6.246;2023-02-21T04:12:05;64.77;;;21.97;;
3573;SDS011;1801;51.050;6.246;2023-02-21T04:14:30;61.53;;;22.27;;
3573;SDS011;1801;51.050;6.246;2023-02-21T04:16:55;70.47;;;21.27;;
3573;SDS011;1801;51.050;6.246;2023-02-21T04:19:20;62.07;;;22.97;;
3573;SDS011;1801;51.050;6.246;2023-02-21T04:21:46;71.33;;;25.07;;
3573;SDS011;1801;51.050;6.246;2023-02-21T04:24:11;82.83;;;23.60;;
3573;SDS011;1801;51.050;6.246;2023-02-21T04:26:36;80.00;;;24.67;;
3573;SDS011;1801;51.050;6.246;2023-02-21T04:29:02;86.90;;;25.37;;
3573;SDS011;1801;51.050;6.246;2023-02-21T04:31:27;70.20;;;24.27;;
3573;SDS011;1801;51.050;6.246;2023-02-21T04:33:52;72.33;;;23.73;;
3573;SDS011;1801;51.050;6.246;2023-02-21T04:36:18;96.97;;;29.63;;
3573;SDS011;1801;51.050;6.246;2023-02-21T04:38:43;84.37;;;25.53;;
3573;SDS011;1801;51.050;6.246;2023-02-21T04:41:08;74.80;;;23.70;;
3573;SDS011;1801;51.050;6.246;2023-02-21T04:43:33;72.90;;;25.30;;
3573;SDS011;1801;51.050;6.246;2023-02-21T04:45:59;72.63;;;26.97;;
3573;SDS011;1801;51.050;6.246;2023-02-21T04:48:24;79.47;;;25.40;;
3573;SDS011;1801;51.050;6.246;2023-02-21T04:50:50;70.63;;;22.87;;
3573;SDS011;1801;51.050;6.246;2023-02-21T04:53:15;82.13;;;22.50;;
3573;SDS011;1801;51.050;6.246;2023-02-21T04:55:40;72.90;;;24.77;;
3573;SDS011;1801;51.050;6.246;2023-02-21T04:58:05;74.97;;;22.90;;
3573;SDS011;1801;51.050;6.246;2023-02-21T05:00:31;81.37;;;22.27;;
3573;SDS011;1801;51.050;6.246;2023-02-21T05:02:56;83.90;;;25.50;;
3573;SDS011;1801;51.050;6.246;2023-02-21T05:05:21;90.10;;;25.40;;
3573;SDS011;1801;51.050;6.246;2023-02-21T05:07:46;89.57;;;25.90;;
3573;SDS011;1801;51.050;6.246;2023-02-21T05:10:13;82.97;;;25.03;;
3573;SDS011;1801;51.050;6.246;2023-02-21T05:12:38;70.63;;;23.20;;
3573;SDS011;1801;51.050;6.246;2023-02-21T05:15:04;70.23;;;20.77;;
3573;SDS011;1801;51.050;6.246;2023-02-21T05:17:29;69.18;;;23.30;;
3573;SDS011;1801;51.050;6.246;2023-02-21T05:19:55;76.50;;;24.43;;
3573;SDS011;1801;51.050;6.246;2023-02-21T05:22:20;81.97;;;22.97;;
3573;SDS011;1801;51.050;6.246;2023-02-21T05:24:45;78.37;;;23.03;;
3573;SDS011;1801;51.050;6.246;2023-02-21T05:27:13;92.13;;;24.77;;
3573;SDS011;1801;51.050;6.246;2023-02-21T05:29:39;67.78;;;22.95;;
3573;SDS011;1801;51.050;6.246;2023-02-21T05:32:04;63.60;;;22.63;;
3573;SDS011;1801;51.050;6.246;2023-02-21T05:34:29;83.57;;;26.20;;
3573;SDS011;1801;51.050;6.246;2023-02-21T05:36:55;80.33;;;23.00;;
3573;SDS011;1801;51.050;6.246;2023-02-21T05:39:20;93.47;;;22.77;;
3573;SDS011;1801;51.050;6.246;2023-02-21T05:41:46;86.90;;;26.47;;
3573;SDS011;1801;51.050;6.246;2023-02-21T05:44:12;69.80;;;22.90;;
3573;SDS011;1801;51.050;6.246;2023-02-21T05:46:37;73.20;;;24.33;;
3573;SDS011;1801;51.050;6.246;2023-02-21T05:49:02;81.73;;;23.67;;
3573;SDS011;1801;51.050;6.246;2023-02-21T05:51:32;73.10;;;24.47;;
3573;SDS011;1801;51.050;6.246;2023-02-21T05:53:58;90.57;;;24.35;;
3573;SDS011;1801;51.050;6.246;2023-02-21T05:56:23;78.43;;;22.43;;
3573;SDS011;1801;51.050;6.246;2023-02-21T05:58:48;70.70;;;22.63;;
3573;SDS011;1801;51.050;6.246;2023-02-21T06:01:13;84.87;;;24.27;;
3573;SDS011;1801;51.050;6.246;2023-02-21T06:03:39;69.13;;;22.03;;
3573;SDS011;1801;51.050;6.246;2023-02-21T06:06:04;63.93;;;24.27;;
3573;SDS011;1801;51.050;6.246;2023-02-21T06:08:29;76.17;;;23.60;;
3573;SDS011;1801;51.050;6.246;2023-02-21T06:10:54;75.80;;;22.47;;
3573;SDS011;1801;51.050;6.246;2023-02-21T06:13:20;77.80;;;19.40;;
3573;SDS011;1801;51.050;6.246;2023-02-21T06:15:45;80.37;;;22.00;;
3573;SDS011;1801;51.050;6.246;2023-02-21T06:18:14;76.60;;;24.47;;
3573;SDS011;1801;51.050;6.246;2023-02-21T06:20:39;77.03;;;23.15;;
3573;SDS011;1801;51.050;6.246;2023-02-21T06:23:05;67.00;;;19.03;;
3573;SDS011;1801;51.050;6.246;2023-02-21T06:25:30;64.87;;;19.27;;
3573;SDS011;1801;51.050;6.246;2023-02-21T06:27:55;79.50;;;22.80;;
3573;SDS011;1801;51.050;6.246;2023-02-21T06:30:20;82.20;;;23.67;;
3573;SDS011;1801;51.050;6.246;2023-02-21T06:32:46;65.27;;;21.47;;
3573;SDS011;1801;51.050;6.246;2023-02-21T06:35:11;84.47;;;24.77;;
3573;SDS011;1801;51.050;6.246;2023-02-21T06:37:36;73.60;;;24.10;;
3573;SDS011;1801;51.050;6.246;2023-02-21T06:40:02;81.57;;;26.30;;
3573;SDS011;1801;51.050;6.246;2023-02-21T06:42:29;83.68;;;24.75;;
3573;SDS011;1801;51.050;6.246;2023-02-21T06:44:54;78.27;;;21.63;;
3573;SDS011;1801;51.050;6.246;2023-02-21T06:47:19;89.30;;;23.37;;
3573;SDS011;1801;51.050;6.246;2023-02-21T06:49:44;82.17;;;24.63;;
3573;SDS011;1801;51.050;6.246;2023-02-21T06:52:10;64.33;;;20.63;;
3573;SDS011;1801;51.050;6.246;2023-02-21T06:54:35;63.43;;;19.40;;
3573;SDS011;1801;51.050;6.246;2023-02-21T06:57:00;62.30;;;20.00;;
3573;SDS011;1801;51.050;6.246;2023-02-21T06:59:28;63.50;;;19.30;;
3573;SDS011;1801;51.050;6.246;2023-02-21T07:01:54;60.35;;;18.60;;
3573;SDS011;1801;51.050;6.246;2023-02-21T07:04:19;57.37;;;19.33;;
3573;SDS011;1801;51.050;6.246;2023-02-21T07:06:44;62.17;;;18.60;;
3573;SDS011;1801;51.050;6.246;2023-02-21T07:09:09;76.10;;;20.60;;
3573;SDS011;1801;51.050;6.246;2023-02-21T07:11:35;55.83;;;16.70;;
3573;SDS011;1801;51.050;6.246;2023-02-21T07:14:00;54.33;;;18.20;;
3573;SDS011;1801;51.050;6.246;2023-02-21T07:16:25;65.47;;;19.80;;
3573;SDS011;1801;51.050;6.246;2023-02-21T07:18:51;51.27;;;16.80;;
3573;SDS011;1801;51.050;6.246;2023-02-21T07:21:16;53.13;;;17.03;;
3573;SDS011;1801;51.050;6.246;2023-02-21T07:23:42;65.10;;;18.25;;
3573;SDS011;1801;51.050;6.246;2023-02-21T07:26:08;62.05;;;19.40;;
3573;SDS011;1801;51.050;6.246;2023-02-21T07:28:33;57.60;;;19.27;;
3573;SDS011;1801;51.050;6.246;2023-02-21T07:30:58;48.77;;;16.40;;
3573;SDS011;1801;51.050;6.246;2023-02-21T07:33:24;63.30;;;18.40;;
3573;SDS011;1801;51.050;6.246;2023-02-21T07:35:49;58.50;;;17.27;;
3573;SDS011;1801;51.050;6.246;2023-02-21T07:38:23;59.40;;;19.43;;
3573;SDS011;1801;51.050;6.246;2023-02-21T07:40:48;66.32;;;19.80;;
3573;SDS011;1801;51.050;6.246;2023-02-21T07:43:14;61.53;;;21.27;;
3573;SDS011;1801;51.050;6.246;2023-02-21T07:45:39;63.27;;;18.40;;
3573;SDS011;1801;51.050;6.246;2023-02-21T07:48:04;63.20;;;18.97;;
3573;SDS011;1801;51.050;6.246;2023-02-21T07:50:29;66.60;;;21.10;;
3573;SDS011;1801;51.050;6.246;2023-02-21T07:52:55;64.90;;;18.90;;
3573;SDS011;1801;51.050;6.246;2023-02-21T07:55:20;65.00;;;20.57;;
3573;SDS011;1801;51.050;6.246;2023-02-21T07:57:45;61.07;;;18.03;;
3573;SDS011;1801;51.050;6.246;2023-02-21T08:00:11;53.83;;;18.80;;
3573;SDS011;1801;51.050;6.246;2023-02-21T08:02:36;66.87;;;18.43;;
3573;SDS011;1801;51.050;6.246;2023-02-21T08:05:03;64.83;;;17.30;;
3573;SDS011;1801;51.050;6.246;2023-02-21T08:07:28;64.72;;;19.00;;
3573;SDS011;1801;51.050;6.246;2023-02-21T08:09:53;53.70;;;17.03;;
3573;SDS011;1801;51.050;6.246;2023-02-21T08:12:18;52.93;;;17.10;;
3573;SDS011;1801;51.050;6.246;2023-02-21T08:14:44;60.53;;;16.57;;
3573;SDS011;1801;51.050;6.246;2023-02-21T08:17:09;53.80;;;16.20;;
3573;SDS011;1801;51.050;6.246;2023-02-21T08:19:34;66.47;;;18.60;;
3573;SDS011;1801;51.050;6.246;2023-02-21T08:21:59;57.17;;;17.77;;
3573;SDS011;1801;51.050;6.246;2023-02-21T08:24:24;63.17;;;18.33;;
3573;SDS011;1801;51.050;6.246;2023-02-21T08:26:49;61.23;;;20.97;;
3573;SDS011;1801;51.050;6.246;2023-02-21T08:29:15;71.20;;;19.60;;
3573;SDS011;1801;51.050;6.246;2023-02-21T08:31:42;80.75;;;22.30;;
3573;SDS011;1801;51.050;6.246;2023-02-21T08:34:08;82.93;;;24.27;;
3573;SDS011;1801;51.050;6.246;2023-02-21T08:36:35;98.70;;;27.77;;
3573;SDS011;1801;51.050;6.246;2023-02-21T08:39:00;103.95;;;24.92;;
3573;SDS011;1801;51.050;6.246;2023-02-21T08:41:33;77.90;;;23.47;;
3573;SDS011;1801;51.050;6.246;2023-02-21T08:43:59;98.65;;;26.90;;
3573;SDS011;1801;51.050;6.246;2023-02-21T08:46:24;102.03;;;26.17;;
3573;SDS011;1801;51.050;6.246;2023-02-21T08:48:49;96.30;;;26.10;;
3573;SDS011;1801;51.050;6.246;2023-02-21T08:51:15;83.20;;;25.00;;
3573;SDS011;1801;51.050;6.246;2023-02-21T08:53:40;106.53;;;26.00;;
3573;SDS011;1801;51.050;6.246;2023-02-21T08:56:05;79.90;;;22.27;;
3573;SDS011;1801;51.050;6.246;2023-02-21T08:58:30;76.80;;;20.37;;
3573;SDS011;1801;51.050;6.246;2023-02-21T09:00:56;72.03;;;20.43;;
3573;SDS011;1801;51.050;6.246;2023-02-21T09:03:21;78.47;;;20.50;;
3573;SDS011;1801;51.050;6.246;2023-02-21T09:05:46;78.07;;;20.20;;
3573;SDS011;1801;51.050;6.246;2023-02-21T09:08:11;89.33;;;22.50;;
3573;SDS011;1801;51.050;6.246;2023-02-21T09:10:37;84.37;;;21.17;;
3573;SDS011;1801;51.050;6.246;2023-02-21T09:13:11;75.63;;;21.77;;
3573;SDS011;1801;51.050;6.246;2023-02-21T09:15:36;96.63;;;24.10;;
3573;SDS011;1801;51.050;6.246;2023-02-21T09:18:02;82.17;;;22.43;;
3573;SDS011;1801;51.050;6.246;2023-02-21T09:20:27;87.27;;;21.60;;
3573;SDS011;1801;51.050;6.246;2023-02-21T09:22:52;73.67;;;20.57;;
3573;SDS011;1801;51.050;6.246;2023-02-21T09:25:19;75.17;;;21.10;;
3573;SDS011;1801;51.050;6.246;2023-02-21T09:27:44;60.83;;;17.10;;
3573;SDS011;1801;51.050;6.246;2023-02-21T09:30:11;56.80;;;19.57;;
3573;SDS011;1801;51.050;6.246;2023-02-21T09:32:37;71.40;;;19.83;;
3573;SDS011;1801;51.050;6.246;2023-02-21T09:35:03;72.37;;;19.50;;
3573;SDS011;1801;51.050;6.246;2023-02-21T09:37:28;64.57;;;19.00;;
3573;SDS011;1801;51.050;6.246;2023-02-21T09:39:53;57.70;;;17.97;;
3573;SDS011;1801;51.050;6.246;2023-02-21T09:42:27;65.37;;;20.47;;
3573;SDS011;1801;51.050;6.246;2023-02-21T09:44:53;63.22;;;20.13;;
3573;SDS011;1801;51.050;6.246;2023-02-21T09:47:26;67.47;;;20.10;;
3573;SDS011;1801;51.050;6.246;2023-02-21T09:50:03;58.42;;;16.70;;
3573;SDS011;1801;51.050;6.246;2023-02-21T09:52:32;56.83;;;17.15;;
3573;SDS011;1801;51.050;6.246;2023-02-21T09:54:59;52.75;;;15.73;;
3573;SDS011;1801;51.050;6.246;2023-02-21T09:57:26;42.50;;;12.68;;
3573;SDS011;1801;51.050;6.246;2023-02-21T09:59:51;38.07;;;13.03;;
3573;SDS011;1801;51.050;6.246;2023-02-21T10:02:23;41.17;;;11.90;;
3573;SDS011;1801;51.050;6.246;2023-02-21T10:09:56;54.53;;;16.17;;
3573;SDS011;1801;51.050;6.246;2023-02-21T10:12:33;48.55;;;14.88;;
3573;SDS011;1801;51.050;6.246;2023-02-21T10:20:17;36.65;;;14.63;;
3573;SDS011;1801;51.050;6.246;2023-02-21T10:22:45;48.40;;;16.83;;
3573;SDS011;1801;51.050;6.246;2023-02-21T10:25:18;49.58;;;17.20;;
3573;SDS011;1801;51.050;6.246;2023-02-21T10:27:45;53.08;;;16.38;;
3573;SDS011;1801;51.050;6.246;2023-02-21T10:30:10;58.30;;;17.63;;
3573;SDS011;1801;51.050;6.246;2023-02-21T10:32:41;40.22;;;16.23;;
3573;SDS011;1801;51.050;6.246;2023-02-21T10:35:06;44.20;;;14.43;;
3573;SDS011;1801;51.050;6.246;2023-02-21T10:40:24;39.83;;;14.43;;
3573;SDS011;1801;51.050;6.246;2023-02-21T10:42:49;39.97;;;15.30;;
3573;SDS011;1801;51.050;6.246;2023-02-21T10:45:18;42.38;;;14.82;;
3573;SDS011;1801;51.050;6.246;2023-02-21T10:50:09;40.20;;;16.70;;
3573;SDS011;1801;51.050;6.246;2023-02-21T10:52:36;56.20;;;17.25;;
3573;SDS011;1801;51.050;6.246;2023-02-21T10:55:05;43.65;;;15.70;;
3573;SDS011;1801;51.050;6.246;2023-02-21T10:57:36;42.50;;;17.40;;
3573;SDS011;1801;51.050;6.246;2023-02-21T11:00:02;39.50;;;15.15;;
3573;SDS011;1801;51.050;6.246;2023-02-21T11:02:37;38.55;;;13.57;;
3573;SDS011;1801;51.050;6.246;2023-02-21T11:05:07;39.40;;;13.65;;
3573;SDS011;1801;51.050;6.246;2023-02-21T11:07:33;46.45;;;14.75;;
3573;SDS011;1801;51.050;6.246;2023-02-21T11:09:58;40.50;;;14.17;;
3573;SDS011;1801;51.050;6.246;2023-02-21T11:12:24;40.40;;;15.40;;
3573;SDS011;1801;51.050;6.246;2023-02-21T11:17:19;44.90;;;14.40;;
3573;SDS011;1801;51.050;6.246;2023-02-21T11:22:09;38.03;;;14.33;;
3573;SDS011;1801;51.050;6.246;2023-02-21T11:24:52;45.60;;;15.43;;
3573;SDS011;1801;51.050;6.246;2023-02-21T11:27:19;38.60;;;13.55;;
3573;SDS011;1801;51.050;6.246;2023-02-21T11:29:46;47.23;;;14.43;;
3573;SDS011;1801;51.050;6.246;2023-02-21T11:32:14;40.88;;;14.40;;
3573;SDS011;1801;51.050;6.246;2023-02-21T11:34:43;44.80;;;15.23;;
3573;SDS011;1801;51.050;6.246;2023-02-21T11:37:12;44.58;;;15.45;;
3573;SDS011;1801;51.050;6.246;2023-02-21T11:39:38;42.92;;;14.88;;
3573;SDS011;1801;51.050;6.246;2023-02-21T11:42:22;38.17;;;15.25;;
3573;SDS011;1801;51.050;6.246;2023-02-21T11:44:47;30.05;;;11.77;;
3573;SDS011;1801;51.050;6.246;2023-02-21T11:47:16;43.67;;;15.05;;
3573;SDS011;1801;51.050;6.246;2023-02-21T11:52:11;36.80;;;13.07;;
3573;SDS011;1801;51.050;6.246;2023-02-21T11:54:36;34.42;;;14.70;;
3573;SDS011;1801;51.050;6.246;2023-02-21T11:57:04;45.07;;;16.40;;
3573;SDS011;1801;51.050;6.246;2023-02-21T12:07:16;39.25;;;15.40;;
3573;SDS011;1801;51.050;6.246;2023-02-21T12:09:49;41.00;;;15.40;;
3573;SDS011;1801;51.050;6.246;2023-02-21T12:17:49;42.03;;;16.37;;
3573;SDS011;1801;51.050;6.246;2023-02-21T12:22:53;40.70;;;15.18;;
3573;SDS011;1801;51.050;6.246;2023-02-21T12:25:28;41.17;;;15.07;;
3573;SDS011;1801;51.050;6.246;2023-02-21T12:36:17;47.33;;;15.55;;
3573;SDS011;1801;51.050;6.246;2023-02-21T12:41:15;44.97;;;16.80;;
3573;SDS011;1801;51.050;6.246;2023-02-21T12:44:06;48.57;;;17.47;;
3573;SDS011;1801;51.050;6.246;2023-02-21T12:49:12;51.17;;;16.90;;
3573;SDS011;1801;51.050;6.246;2023-02-21T12:51:40;45.10;;;15.50;;
3573;SDS011;1801;51.050;6.246;2023-02-21T12:54:19;61.17;;;18.70;;
3573;SDS011;1801;51.050;6.246;2023-02-21T12:56:52;38.30;;;16.02;;
3573;SDS011;1801;51.050;6.246;2023-02-21T12:59:23;46.90;;;16.00;;
3573;SDS011;1801;51.050;6.246;2023-02-21T13:04:51;46.00;;;17.58;;
3573;SDS011;1801;51.050;6.246;2023-02-21T13:12:27;39.67;;;14.83;;
3573;SDS011;1801;51.050;6.246;2023-02-21T13:15:11;39.83;;;15.03;;
3573;SDS011;1801;51.050;6.246;2023-02-21T13:17:38;44.88;;;16.30;;
3573;SDS011;1801;51.050;6.246;2023-02-21T13:20:08;39.20;;;14.33;;
3573;SDS011;1801;51.050;6.246;2023-02-21T13:25:43;43.93;;;15.20;;
3573;SDS011;1801;51.050;6.246;2023-02-21T13:28:17;38.70;;;15.23;;
3573;SDS011;1801;51.050;6.246;2023-02-21T13:30:45;45.90;;;15.67;;
3573;SDS011;1801;51.050;6.246;2023-02-21T13:35:57;43.87;;;16.97;;
3573;SDS011;1801;51.050;6.246;2023-02-21T13:38:24;44.43;;;17.27;;
3573;SDS011;1801;51.050;6.246;2023-02-21T13:41:04;42.67;;;16.90;;
3573;SDS011;1801;51.050;6.246;2023-02-21T13:43:31;43.77;;;16.57;;
3573;SDS011;1801;51.050;6.246;2023-02-21T13:48:40;41.33;;;16.43;;
3573;SDS011;1801;51.050;6.246;2023-02-21T13:51:06;47.17;;;17.77;;
3573;SDS011;1801;51.050;6.246;2023-02-21T13:54:08;36.73;;;15.10;;
3573;SDS011;1801;51.050;6.246;2023-02-21T13:56:41;45.37;;;18.20;;
3573;SDS011;1801;51.050;6.246;2023-02-21T14:02:16;47.70;;;16.97;;
3573;SDS011;1801;51.050;6.246;2023-02-21T14:10:12;44.53;;;18.80;;
3573;SDS011;1801;51.050;6.246;2023-02-21T14:12:42;49.37;;;18.00;;
3573;SDS011;1801;51.050;6.246;2023-02-21T14:15:07;50.40;;;19.27;;
3573;SDS011;1801;51.050;6.246;2023-02-21T14:17:32;56.13;;;21.43;;
3573;SDS011;1801;51.050;6.246;2023-02-21T14:20:00;48.83;;;21.67;;
3573;SDS011;1801;51.050;6.246;2023-02-21T14:22:27;51.10;;;20.27;;
3573;SDS011;1801;51.050;6.246;2023-02-21T14:25:03;45.40;;;16.87;;
3573;SDS011;1801;51.050;6.246;2023-02-21T14:27:30;44.50;;;18.50;;
3573;SDS011;1801;51.050;6.246;2023-02-21T14:32:41;52.83;;;19.20;;
3573;SDS011;1801;51.050;6.246;2023-02-21T14:37:50;62.13;;;23.53;;
3573;SDS011;1801;51.050;6.246;2023-02-21T14:40:23;50.13;;;22.50;;
3573;SDS011;1801;51.050;6.246;2023-02-21T14:55:38;58.20;;;23.10;;
3573;SDS011;1801;51.050;6.246;2023-02-21T15:03:24;51.50;;;22.63;;
3573;SDS011;1801;51.050;6.246;2023-02-21T15:05:58;51.77;;;20.03;;
3573;SDS011;1801;51.050;6.246;2023-02-21T15:08:25;63.50;;;26.10;;
3573;SDS011;1801;51.050;6.246;2023-02-21T15:10:52;61.77;;;23.50;;
3573;SDS011;1801;51.050;6.246;2023-02-21T15:13:24;55.23;;;21.70;;
3573;SDS011;1801;51.050;6.246;2023-02-21T15:15:54;53.33;;;21.80;;
3573;SDS011;1801;51.050;6.246;2023-02-21T15:18:24;52.80;;;21.10;;
3573;SDS011;1801;51.050;6.246;2023-02-21T15:21:00;48.00;;;18.77;;
3573;SDS011;1801;51.050;6.246;2023-02-21T15:23:26;46.57;;;17.87;;
3573;SDS011;1801;51.050;6.246;2023-02-21T15:25:54;53.23;;;18.50;;
3573;SDS011;1801;51.050;6.246;2023-02-21T15:28:21;41.47;;;17.37;;
3573;SDS011;1801;51.050;6.246;2023-02-21T15:30:54;44.97;;;17.97;;
3573;SDS011;1801;51.050;6.246;2023-02-21T15:33:20;41.73;;;17.60;;
3573;SDS011;1801;51.050;6.246;2023-02-21T15:35:52;48.63;;;18.67;;
3573;SDS011;1801;51.050;6.246;2023-02-21T15:38:19;50.43;;;17.90;;
3573;SDS011;1801;51.050;6.246;2023-02-21T15:40:45;53.03;;;20.90;;
3573;SDS011;1801;51.050;6.246;2023-02-21T15:43:19;53.03;;;20.80;;
3573;SDS011;1801;51.050;6.246;2023-02-21T15:45:46;45.87;;;18.80;;
3573;SDS011;1801;51.050;6.246;2023-02-21T15:48:12;49.40;;;20.40;;
3573;SDS011;1801;51.050;6.246;2023-02-21T15:50:38;44.67;;;18.20;;
3573;SDS011;1801;51.050;6.246;2023-02-21T15:55:38;50.03;;;19.80;;
3573;SDS011;1801;51.050;6.246;2023-02-21T16:00:30;59.47;;;19.20;;
3573;SDS011;1801;51.050;6.246;2023-02-21T16:05:39;45.78;;;19.98;;
3573;SDS011;1801;51.050;6.246;2023-02-21T16:08:04;56.73;;;19.40;;
3573;SDS011;1801;51.050;6.246;2023-02-21T16:10:30;54.47;;;20.53;;
3573;SDS011;1801;51.050;6.246;2023-02-21T16:12:59;63.20;;;19.17;;
3573;SDS011;1801;51.050;6.246;2023-02-21T16:15:29;58.45;;;20.05;;
3573;SDS011;1801;51.050;6.246;2023-02-21T16:17:55;44.83;;;19.47;;
3573;SDS011;1801;51.050;6.246;2023-02-21T16:20:43;63.00;;;20.97;;
3573;SDS011;1801;51.050;6.246;2023-02-21T16:23:21;51.37;;;20.13;;
3573;SDS011;1801;51.050;6.246;2023-02-21T16:28:25;48.53;;;18.15;;
3573;SDS011;1801;51.050;6.246;2023-02-21T16:30:50;56.30;;;18.63;;
3573;SDS011;1801;51.050;6.246;2023-02-21T16:33:16;48.53;;;18.73;;
3573;SDS011;1801;51.050;6.246;2023-02-21T16:35:41;52.73;;;20.27;;
3573;SDS011;1801;51.050;6.246;2023-02-21T16:38:09;62.87;;;22.00;;
3573;SDS011;1801;51.050;6.246;2023-02-21T16:40:36;49.93;;;20.37;;
3573;SDS011;1801;51.050;6.246;2023-02-21T16:43:03;56.67;;;20.37;;
3573;SDS011;1801;51.050;6.246;2023-02-21T16:45:28;54.73;;;20.40;;
3573;SDS011;1801;51.050;6.246;2023-02-21T16:47:55;53.60;;;21.37;;
3573;SDS011;1801;51.050;6.246;2023-02-21T16:50:22;56.83;;;21.65;;
3573;SDS011;1801;51.050;6.246;2023-02-21T16:52:50;43.58;;;17.55;;
3573;SDS011;1801;51.050;6.246;2023-02-21T16:55:16;54.53;;;20.70;;
3573;SDS011;1801;51.050;6.246;2023-02-21T16:57:41;52.50;;;18.85;;
3573;SDS011;1801;51.050;6.246;2023-02-21T17:00:07;50.70;;;18.30;;
3573;SDS011;1801;51.050;6.246;2023-02-21T17:02:32;54.30;;;19.83;;
3573;SDS011;1801;51.050;6.246;2023-02-21T17:04:57;50.03;;;18.00;;
3573;SDS011;1801;51.050;6.246;2023-02-21T17:07:23;42.70;;;17.83;;
3573;SDS011;1801;51.050;6.246;2023-02-21T17:09:49;51.42;;;18.25;;
3573;SDS011;1801;51.050;6.246;2023-02-21T17:12:14;48.20;;;19.00;;
3573;SDS011;1801;51.050;6.246;2023-02-21T17:14:39;49.33;;;16.10;;
3573;SDS011;1801;51.050;6.246;2023-02-21T17:17:05;48.00;;;18.17;;
3573;SDS011;1801;51.050;6.246;2023-02-21T17:19:30;41.87;;;18.57;;
3573;SDS011;1801;51.050;6.246;2023-02-21T17:21:55;47.33;;;16.83;;
3573;SDS011;1801;51.050;6.246;2023-02-21T17:24:22;56.75;;;19.15;;
3573;SDS011;1801;51.050;6.246;2023-02-21T17:26:47;49.47;;;20.23;;
3573;SDS011;1801;51.050;6.246;2023-02-21T17:29:15;42.17;;;18.55;;
3573;SDS011;1801;51.050;6.246;2023-02-21T17:31:40;51.67;;;19.87;;
3573;SDS011;1801;51.050;6.246;2023-02-21T17:34:06;51.57;;;19.00;;